Time;durP1;ratioP1;P1;durP2;ratioP2;P2;SDS_P1;SDS_P2;PMS_P1;PMS_P2;Temp;Humidity;BMP_temperature;BMP_pressure;BME280_temperature;BME280_humidity;BME280_pressure;Samples;Min_cycle;Max_cycle;Signal;HPM_P1;HPM_P2
2021/12/08 00:04:05;;;;;;;2.07;0.50;;;;;;;0.27;88.02;98403.72;10537099;28;20259;-82
2021/12/08 00:09:19;;;;;;;4.80;0.90;;;;;;;0.09;88.67;98415.63;10498889;28;20210;-80
2021/12/08 00:14:21;;;;;;;1.87;0.60;;;;;;;0.10;90.30;98389.66;10535464;28;20275;-81
2021/12/08 00:19:24;;;;;;;1.43;0.30;;;;;;;-0.12;90.27;98381.13;10537738;28;20203;-81
2021/12/08 00:24:26;;;;;;;0.70;0.50;;;;;;;-0.04;89.87;98367.53;10515420;28;20268;-80
2021/12/08 00:29:28;;;;;;;1.63;0.60;;;;;;;-0.02;89.81;98375.47;10502426;28;20210;-81
2021/12/08 00:34:31;;;;;;;3.10;0.57;;;;;;;0.36;88.29;98373.50;10519034;28;20528;-80
2021/12/08 00:39:33;;;;;;;2.97;0.57;;;;;;;0.57;87.16;98382.22;10510592;28;20685;-80
2021/12/08 00:44:36;;;;;;;1.00;0.50;;;;;;;0.59;86.38;98363.41;10504612;28;20665;-79
2021/12/08 00:49:39;;;;;;;1.97;0.80;;;;;;;0.63;86.99;98354.19;10518289;28;20223;-79
2021/12/08 00:54:42;;;;;;;2.10;0.60;;;;;;;0.63;86.83;98347.84;10518038;28;20287;-80
2021/12/08 00:59:44;;;;;;;1.57;0.60;;;;;;;0.79;86.41;98369.34;10500153;28;20615;-78
2021/12/08 01:05:00;;;;;;;2.83;0.90;;;;;;;1.13;85.54;98374.50;10493348;28;20314;-79
2021/12/08 01:10:08;;;;;;;1.37;0.33;;;;;;;0.78;86.66;98380.72;10515083;28;20264;-79
2021/12/08 01:15:31;;;;;;;3.60;0.70;;;;;;;1.04;85.89;98378.28;10519244;28;20542;-79
2021/12/08 01:20:34;;;;;;;1.70;0.70;;;;;;;0.97;87.26;98381.47;10519852;28;20258;-79
2021/12/08 01:25:36;;;;;;;2.30;0.67;;;;;;;0.96;87.04;98373.47;10505699;28;20260;-79
2021/12/08 01:30:39;;;;;;;2.50;0.60;;;;;;;0.72;88.36;98379.19;10529299;28;20255;-78
2021/12/08 01:35:41;;;;;;;1.17;0.70;;;;;;;0.82;88.27;98385.34;10510203;28;20214;-78
2021/12/08 01:40:44;;;;;;;1.77;0.57;;;;;;;1.04;88.64;98390.16;10487156;28;20253;-80
2021/12/08 01:46:00;;;;;;;0.90;0.70;;;;;;;0.67;90.00;98382.03;10531958;28;20242;-80
2021/12/08 01:51:15;;;;;;;0.93;0.57;;;;;;;0.95;89.13;98361.59;10508347;28;20226;-80
2021/12/08 01:56:19;;;;;;;1.10;0.40;;;;;;;1.08;88.53;98385.66;10529372;28;20242;-80
2021/12/08 02:01:24;;;;;;;1.90;0.43;;;;;;;0.85;89.29;98389.44;10517188;28;20261;-80
2021/12/08 02:06:27;;;;;;;4.03;1.23;;;;;;;1.09;87.61;98389.25;10492472;28;20203;-80
2021/12/08 02:11:29;;;;;;;1.23;0.40;;;;;;;1.03;87.69;98399.56;10515241;28;20195;-80
2021/12/08 02:16:32;;;;;;;0.93;0.50;;;;;;;0.97;88.13;98395.28;10504857;28;20254;-80
2021/12/08 02:21:37;;;;;;;1.43;0.60;;;;;;;1.32;86.56;98392.91;10496019;28;20291;-81
2021/12/08 02:26:43;;;;;;;0.70;0.50;;;;;;;1.13;87.70;98402.16;10485500;28;20225;-80
2021/12/08 02:47:52;;;;;;;0.50;0.50;;;;;;;1.31;87.54;98394.03;10525338;28;20708;-80
2021/12/08 02:52:56;;;;;;;3.27;0.70;;;;;;;0.96;89.39;98393.63;10524571;28;20208;-79
2021/12/08 02:58:01;;;;;;;1.87;0.80;;;;;;;0.97;89.39;98403.56;10539830;28;20251;-78
2021/12/08 03:03:05;;;;;;;1.30;0.40;;;;;;;1.45;87.75;98397.63;10508558;28;20311;-79
2021/12/08 03:08:09;;;;;;;0.80;0.67;;;;;;;1.17;88.79;98408.69;10512112;28;20198;-79
2021/12/08 03:13:11;;;;;;;1.33;0.40;;;;;;;1.07;89.23;98400.59;10511955;28;20703;-82
2021/12/08 03:18:14;;;;;;;1.70;0.70;;;;;;;1.21;89.28;98395.06;10550829;28;20202;-80
2021/12/08 03:23:23;;;;;;;1.43;0.70;;;;;;;1.72;86.56;98393.97;10571001;28;20213;-78
2021/12/08 03:28:30;;;;;;;1.80;0.80;;;;;;;1.83;86.36;98401.75;10553969;28;20205;-77
2021/12/08 03:33:33;;;;;;;2.33;0.70;;;;;;;1.89;86.01;98408.81;10521916;28;20799;-78
2021/12/08 03:38:36;;;;;;;1.30;0.57;;;;;;;1.68;86.81;98398.50;10531953;28;20199;-78
2021/12/08 03:43:39;;;;;;;0.80;0.50;;;;;;;2.10;85.79;98413.88;10515541;28;20279;-80
2021/12/08 03:48:47;;;;;;;1.13;0.70;;;;;;;2.05;86.09;98425.09;10520693;28;20591;-78
2021/12/08 03:53:49;;;;;;;0.80;0.60;;;;;;;1.82;86.50;98425.03;10520126;28;20231;-81
2021/12/08 03:58:52;;;;;;;2.80;0.60;;;;;;;1.90;86.34;98426.25;10531816;28;20195;-78
2021/12/08 04:04:00;;;;;;;1.73;0.60;;;;;;;1.97;85.90;98436.88;10526474;28;20223;-79
2021/12/08 04:09:06;;;;;;;0.73;0.63;;;;;;;1.89;87.08;98427.38;10539100;28;20190;-78
2021/12/08 04:14:10;;;;;;;1.10;0.73;;;;;;;1.94;86.61;98443.03;10544412;28;20217;-78
2021/12/08 04:19:15;;;;;;;2.47;0.80;;;;;;;2.03;86.51;98443.97;10555684;28;20216;-79
2021/12/08 04:24:17;;;;;;;2.40;0.70;;;;;;;1.83;87.49;98451.56;10509469;28;20564;-79
2021/12/08 04:29:21;;;;;;;0.70;0.70;;;;;;;2.03;87.10;98457.81;10536140;28;20199;-79
2021/12/08 04:34:29;;;;;;;1.37;0.63;;;;;;;2.18;86.58;98452.72;10535856;28;20259;-81
2021/12/08 04:39:52;;;;;;;1.20;0.73;;;;;;;2.10;86.40;98447.09;10544616;28;20201;-80
2021/12/08 04:45:03;;;;;;;1.03;0.90;;;;;;;2.34;86.54;98442.13;10556714;28;20245;-80
2021/12/08 04:50:39;;;;;;;1.50;0.80;;;;;;;1.92;87.87;98442.56;10537278;28;20202;-78
2021/12/08 05:01:20;;;;;;;5.07;1.03;;;;;;;2.18;87.31;98438.03;10523292;28;20244;-78
2021/12/08 05:11:58;;;;;;;4.10;1.20;;;;;;;1.91;88.01;98452.00;10531200;28;20250;-81
2021/12/08 05:17:07;;;;;;;2.77;1.17;;;;;;;2.08;87.49;98443.81;10520558;28;20432;-82
2021/12/08 05:22:20;;;;;;;3.97;1.10;;;;;;;2.07;87.18;98456.84;10516875;28;20786;-81
2021/12/08 05:27:29;;;;;;;2.43;1.03;;;;;;;2.02;87.30;98465.28;10491538;28;20354;-82
2021/12/08 05:32:32;;;;;;;3.20;1.50;;;;;;;2.22;86.84;98477.84;10525368;28;20203;-79
2021/12/08 05:37:34;;;;;;;2.53;1.13;;;;;;;2.19;86.67;98484.00;10537091;28;20195;-82
2021/12/08 05:42:37;;;;;;;3.47;1.10;;;;;;;2.10;87.33;98492.25;10499030;28;20249;-80
2021/12/08 05:47:40;;;;;;;1.83;1.13;;;;;;;2.14;87.39;98503.53;10516811;28;20245;-79
2021/12/08 05:52:42;;;;;;;2.47;1.03;;;;;;;2.30;86.34;98501.25;10503792;28;20262;-80
2021/12/08 05:57:45;;;;;;;4.53;1.20;;;;;;;1.80;88.39;98509.50;10516886;28;20670;-81
2021/12/08 06:02:47;;;;;;;2.97;1.30;;;;;;;1.67;89.67;98504.81;10516354;28;20264;-82
2021/12/08 06:07:49;;;;;;;4.13;1.13;;;;;;;2.05;87.35;98505.41;10520259;28;20240;-82
2021/12/08 06:12:52;;;;;;;3.37;1.00;;;;;;;1.81;88.62;98511.97;10510562;28;20247;-81
2021/12/08 06:17:54;;;;;;;3.13;1.17;;;;;;;1.83;88.36;98515.25;10514875;28;20194;-82
2021/12/08 06:22:57;;;;;;;2.80;1.30;;;;;;;1.88;88.01;98517.94;10530045;28;20205;-83
2021/12/08 06:28:00;;;;;;;2.37;1.00;;;;;;;1.72;88.22;98513.00;10542569;28;20199;-81
2021/12/08 06:33:02;;;;;;;4.10;1.37;;;;;;;1.57;89.30;98514.13;10531792;28;20247;-80
2021/12/08 06:38:06;;;;;;;3.33;0.80;;;;;;;1.63;89.12;98532.28;10545581;28;20242;-81
2021/12/08 06:43:12;;;;;;;2.90;1.00;;;;;;;1.88;88.39;98529.00;10530942;28;20306;-80
2021/12/08 06:48:19;;;;;;;2.13;1.30;;;;;;;1.79;88.64;98535.59;10511666;28;20541;-79
2021/12/08 06:53:23;;;;;;;3.07;1.30;;;;;;;1.64;88.71;98530.34;10521391;28;20206;-80
2021/12/08 06:58:27;;;;;;;4.17;1.37;;;;;;;1.85;88.85;98526.84;10531213;28;20651;-80
2021/12/08 07:03:52;;;;;;;2.73;1.20;;;;;;;1.81;88.74;98523.03;10530914;28;20230;-81
2021/12/08 07:08:54;;;;;;;6.47;1.33;;;;;;;2.08;87.09;98529.69;10533733;28;20259;-81
2021/12/08 07:13:57;;;;;;;3.80;1.27;;;;;;;1.69;88.25;98525.50;10521206;28;20283;-80
2021/12/08 07:19:22;;;;;;;3.43;1.23;;;;;;;1.53;89.41;98543.53;10533641;28;20592;-81
2021/12/08 07:24:30;;;;;;;6.03;1.50;;;;;;;2.12;87.10;98550.94;10503938;28;20626;-80
2021/12/08 07:29:34;;;;;;;3.43;1.23;;;;;;;1.98;87.02;98563.16;10495527;28;20613;-81
2021/12/08 07:34:37;;;;;;;3.23;1.60;;;;;;;2.25;86.48;98571.44;10513517;28;20609;-81
2021/12/08 07:39:44;;;;;;;4.73;1.20;;;;;;;2.29;85.78;98578.00;10524493;28;20263;-80
2021/12/08 07:44:49;;;;;;;4.67;1.13;;;;;;;2.32;85.81;98584.88;10521975;28;20226;-80
2021/12/08 07:49:56;;;;;;;1.77;1.00;;;;;;;2.20;86.12;98590.91;10521260;28;20256;-80
2021/12/08 07:54:59;;;;;;;4.80;0.97;;;;;;;2.50;84.31;98598.63;10525836;28;20198;-81
2021/12/08 08:00:13;;;;;;;4.93;0.90;;;;;;;2.28;85.34;98600.47;10526914;28;20206;-80
2021/12/08 08:05:23;;;;;;;2.73;0.80;;;;;;;2.34;84.90;98597.28;10522574;28;20256;-81
2021/12/08 08:10:27;;;;;;;4.40;1.07;;;;;;;1.81;86.20;98600.56;10509814;28;20587;-80
2021/12/08 08:15:33;;;;;;;1.13;0.60;;;;;;;2.57;82.97;98607.31;10528682;28;20638;-81
2021/12/08 08:20:39;;;;;;;3.83;0.93;;;;;;;2.51;83.22;98619.66;10500095;28;20203;-80
2021/12/08 08:25:44;;;;;;;1.33;0.53;;;;;;;2.51;83.03;98614.13;10504753;28;20859;-80
2021/12/08 08:31:02;;;;;;;1.53;0.60;;;;;;;2.56;82.84;98605.69;10527055;28;20244;-81
2021/12/08 08:36:15;;;;;;;4.33;0.83;;;;;;;2.57;82.17;98609.25;10517642;28;20202;-80
2021/12/08 08:41:31;;;;;;;1.70;0.80;;;;;;;2.40;83.00;98614.66;10518859;28;20202;-80
2021/12/08 08:46:39;;;;;;;4.77;0.80;;;;;;;2.84;82.67;98617.50;10548018;28;20291;-80
2021/12/08 08:51:49;;;;;;;3.10;0.80;;;;;;;2.34;83.61;98622.25;10560116;28;20217;-82
2021/12/08 08:57:01;;;;;;;4.43;0.60;;;;;;;2.79;82.24;98619.59;10525958;28;20583;-81
2021/12/08 09:02:09;;;;;;;4.87;0.50;;;;;;;2.55;82.45;98631.78;10533554;28;20226;-81
2021/12/08 09:07:18;;;;;;;2.03;0.50;;;;;;;2.50;82.70;98626.31;10524141;28;20203;-80
2021/12/08 09:12:34;;;;;;;7.43;1.00;;;;;;;2.52;82.34;98621.28;10515060;28;20203;-80
2021/12/08 09:17:41;;;;;;;4.70;0.87;;;;;;;2.75;82.02;98624.94;10549398;28;20243;-80
2021/12/08 09:22:54;;;;;;;3.20;0.70;;;;;;;2.56;82.70;98638.97;10526518;28;20244;-80
2021/12/08 09:28:21;;;;;;;3.47;0.80;;;;;;;2.79;80.88;98639.81;10523765;28;20251;-83
2021/12/08 09:33:27;;;;;;;3.30;0.70;;;;;;;2.99;80.69;98641.28;10545270;28;20244;-80
2021/12/08 09:38:40;;;;;;;5.63;0.80;;;;;;;2.87;80.55;98657.66;10526091;28;20243;-81
2021/12/08 09:43:47;;;;;;;5.17;0.83;;;;;;;3.01;79.45;98664.00;10508293;28;20215;-80
2021/12/08 09:48:50;;;;;;;1.33;0.53;;;;;;;3.07;78.81;98660.00;10512052;28;20590;-83
2021/12/08 09:53:52;;;;;;;2.40;0.70;;;;;;;3.17;78.10;98659.75;10532475;28;20191;-82
2021/12/08 09:58:56;;;;;;;3.17;0.80;;;;;;;3.23;77.31;98633.50;10530023;28;20217;-80
2021/12/08 10:03:59;;;;;;;3.60;0.80;;;;;;;3.51;76.92;98636.13;10517693;28;20218;-81
2021/12/08 10:09:02;;;;;;;8.00;1.87;;;;;;;3.72;76.10;98647.53;10492449;28;20207;-80
2021/12/08 10:14:04;;;;;;;4.27;0.67;;;;;;;3.78;75.79;98652.63;10511317;28;20263;-80
2021/12/08 10:19:07;;;;;;;4.43;0.73;;;;;;;3.54;75.93;98663.28;10509068;28;20252;-80
2021/12/08 10:24:24;;;;;;;2.53;0.67;;;;;;;3.91;74.69;98668.41;10538860;28;20250;-80
2021/12/08 10:29:28;;;;;;;3.23;0.77;;;;;;;3.67;75.77;98681.81;10516875;28;20210;-81
2021/12/08 10:34:42;;;;;;;4.43;0.87;;;;;;;3.49;75.83;98674.50;10515035;28;20228;-81
2021/12/08 10:39:47;;;;;;;4.17;0.73;;;;;;;3.31;77.07;98676.34;10526892;28;20194;-83
2021/12/08 10:45:08;;;;;;;4.33;0.67;;;;;;;3.43;76.17;98675.78;10512421;28;20350;-80
2021/12/08 10:55:39;;;;;;;4.63;0.63;;;;;;;3.62;75.88;98673.59;10517991;28;20536;-82
2021/12/08 11:00:42;;;;;;;2.33;0.73;;;;;;;3.64;75.49;98683.25;10525702;28;20552;-80
2021/12/08 11:05:44;;;;;;;2.50;0.67;;;;;;;3.90;74.65;98668.72;10528824;28;20222;-80
2021/12/08 11:11:06;;;;;;;4.43;0.80;;;;;;;3.92;75.28;98681.16;10564579;28;20199;-81
2021/12/08 11:16:17;;;;;;;5.30;1.07;;;;;;;3.43;75.88;98671.03;10523958;28;20271;-80
2021/12/08 11:21:29;;;;;;;5.13;0.50;;;;;;;3.85;74.90;98664.13;10511096;28;20664;-80
2021/12/08 11:26:50;;;;;;;5.20;0.70;;;;;;;3.62;76.16;98666.09;10513906;28;20318;-80
2021/12/08 11:32:01;;;;;;;5.37;0.93;;;;;;;3.87;75.00;98678.50;10505733;28;20202;-80
2021/12/08 11:37:03;;;;;;;4.63;0.73;;;;;;;3.93;74.99;98688.34;10505307;28;20202;-80
2021/12/08 11:42:10;;;;;;;4.20;0.93;;;;;;;3.72;75.37;98705.88;10540417;28;20476;-80
2021/12/08 11:47:16;;;;;;;11.07;1.10;;;;;;;3.66;76.00;98694.06;10519635;28;20218;-80
2021/12/08 11:52:23;;;;;;;4.30;1.13;;;;;;;3.60;76.10;98706.44;10537348;28;20206;-80
2021/12/08 11:57:40;;;;;;;4.87;0.80;;;;;;;3.75;75.37;98708.00;10523789;28;20206;-81
2021/12/08 12:02:56;;;;;;;3.60;0.83;;;;;;;4.01;74.38;98695.06;10527029;28;20210;-81
2021/12/08 12:08:07;;;;;;;5.30;0.87;;;;;;;3.84;73.97;98695.81;10517445;28;20264;-80
2021/12/08 12:13:11;;;;;;;5.93;0.97;;;;;;;4.14;72.57;98693.34;10543730;28;20240;-80
2021/12/08 12:18:18;;;;;;;5.07;1.03;;;;;;;3.93;73.74;98693.91;10541678;28;20191;-80
2021/12/08 12:23:46;;;;;;;3.60;0.67;;;;;;;4.15;72.15;98692.22;10523838;28;20687;-82
2021/12/08 12:29:11;;;;;;;7.33;0.80;;;;;;;4.10;72.45;98686.81;10519670;28;20526;-81
2021/12/08 12:34:31;;;;;;;3.50;0.77;;;;;;;4.06;72.03;98697.72;10501124;28;20260;-80
2021/12/08 12:39:33;;;;;;;3.70;0.80;;;;;;;4.01;72.04;98701.47;10525506;28;20543;-82
2021/12/08 12:44:35;;;;;;;3.83;0.57;;;;;;;4.19;71.58;98713.53;10514079;28;20252;-80
2021/12/08 12:49:52;;;;;;;4.07;0.60;;;;;;;3.97;72.42;98705.22;10517778;28;20259;-80
2021/12/08 12:55:15;;;;;;;5.93;1.03;;;;;;;4.36;70.85;98694.16;10536043;28;20194;-80
2021/12/08 13:00:25;;;;;;;5.47;0.70;;;;;;;3.91;70.62;98695.34;10541110;28;20206;-80
2021/12/08 13:05:51;;;;;;;3.97;0.83;;;;;;;3.88;70.75;98696.81;10512632;28;20234;-80
2021/12/08 13:10:55;;;;;;;4.20;0.97;;;;;;;3.74;71.02;98704.41;10522365;28;20198;-82
2021/12/08 13:15:57;;;;;;;2.37;0.40;;;;;;;3.81;70.82;98712.28;10516303;28;20230;-80
2021/12/08 13:21:02;;;;;;;2.87;0.70;;;;;;;4.01;70.69;98707.00;10501691;28;20218;-80
2021/12/08 13:26:17;;;;;;;1.97;0.50;;;;;;;4.14;69.82;98710.03;10509274;28;20246;-80
2021/12/08 13:31:27;;;;;;;3.30;0.93;;;;;;;4.13;69.94;98714.75;10515724;28;20202;-82
2021/12/08 13:36:32;;;;;;;6.57;0.93;;;;;;;3.75;70.53;98719.09;10492705;28;20254;-80
2021/12/08 13:41:37;;;;;;;4.47;0.73;;;;;;;3.83;70.79;98721.97;10496950;28;20196;-80
2021/12/08 13:46:43;;;;;;;2.80;0.83;;;;;;;4.04;70.02;98723.06;10487534;28;20393;-80
2021/12/08 13:52:08;;;;;;;2.90;0.63;;;;;;;3.54;70.89;98736.28;10495196;28;20626;-80
2021/12/08 13:57:37;;;;;;;3.33;0.50;;;;;;;3.27;72.75;98748.28;10519668;28;20587;-82
2021/12/08 14:02:39;;;;;;;8.07;1.07;;;;;;;4.03;69.22;98743.66;10540251;28;20307;-80
2021/12/08 14:07:53;;;;;;;2.30;0.60;;;;;;;3.70;70.42;98739.50;10510786;28;20222;-79
2021/12/08 14:13:08;;;;;;;5.87;0.53;;;;;;;4.13;69.57;98748.09;10519395;28;20223;-79
2021/12/08 14:18:15;;;;;;;3.77;0.70;;;;;;;3.83;70.15;98765.59;10502430;28;20281;-80
2021/12/08 14:23:18;;;;;;;3.57;0.50;;;;;;;4.04;68.98;98773.06;10506642;28;20203;-79
2021/12/08 14:28:40;;;;;;;4.80;0.80;;;;;;;3.96;68.66;98786.91;10510474;28;20642;-80
2021/12/08 14:34:10;;;;;;;4.87;0.57;;;;;;;3.66;69.70;98791.25;10497641;28;20207;-81
2021/12/08 14:39:40;;;;;;;3.77;0.70;;;;;;;3.80;69.65;98792.03;10542073;28;20194;-80
2021/12/08 14:44:48;;;;;;;6.27;0.70;;;;;;;3.81;69.57;98790.91;10516922;28;20223;-80
2021/12/08 14:49:56;;;;;;;4.03;0.70;;;;;;;3.77;69.78;98778.75;10523767;28;20199;-80
2021/12/08 14:54:59;;;;;;;3.07;1.13;;;;;;;4.07;69.03;98771.63;10512143;28;20199;-80
2021/12/08 15:00:04;;;;;;;2.47;0.60;;;;;;;3.78;69.95;98785.13;10488905;28;20215;-79
2021/12/08 15:05:19;;;;;;;6.20;0.80;;;;;;;3.43;71.14;98778.47;10546180;28;20530;-81
2021/12/08 15:10:26;;;;;;;1.60;0.87;;;;;;;3.63;70.86;98784.38;10524576;28;20199;-79
2021/12/08 15:15:32;;;;;;;3.20;0.50;;;;;;;3.53;71.14;98783.78;10496137;28;20227;-79
2021/12/08 15:20:37;;;;;;;3.70;0.83;;;;;;;3.20;72.55;98786.78;10517941;28;20211;-79
2021/12/08 15:25:43;;;;;;;4.53;1.07;;;;;;;3.51;71.74;98784.09;10503962;28;20484;-81
2021/12/08 15:30:53;;;;;;;3.83;0.90;;;;;;;3.66;71.52;98777.38;10487272;28;20234;-79
2021/12/08 15:36:13;;;;;;;7.07;1.23;;;;;;;3.39;73.09;98785.78;10517976;28;20237;-79
2021/12/08 15:41:18;;;;;;;5.97;1.57;;;;;;;3.43;73.05;98781.25;10485920;28;20199;-80
2021/12/08 15:46:22;;;;;;;5.07;1.10;;;;;;;3.53;72.40;98789.34;10502330;28;20259;-79
2021/12/08 15:51:31;;;;;;;6.07;0.93;;;;;;;3.43;72.93;98789.59;10495847;28;20203;-79
2021/12/08 15:56:39;;;;;;;7.40;1.30;;;;;;;3.35;73.22;98793.91;10501248;28;20225;-82
2021/12/08 16:01:43;;;;;;;3.43;1.00;;;;;;;3.39;72.61;98796.88;10473198;28;20227;-82
2021/12/08 16:06:51;;;;;;;5.00;1.27;;;;;;;3.25;73.67;98806.06;10454834;28;20323;-82
2021/12/08 16:12:14;;;;;;;5.17;1.00;;;;;;;3.32;73.34;98813.97;10488520;28;20231;-82
2021/12/08 16:17:16;;;;;;;9.80;1.50;;;;;;;3.59;72.33;98822.25;10474096;28;20250;-80
2021/12/08 16:22:22;;;;;;;4.67;1.33;;;;;;;3.28;73.60;98827.66;10488839;28;20231;-82
2021/12/08 16:27:28;;;;;;;4.67;1.30;;;;;;;3.28;73.60;98832.38;10487258;28;20394;-82
2021/12/08 16:32:30;;;;;;;6.73;1.63;;;;;;;2.74;75.33;98849.84;10472691;28;20268;-83
2021/12/08 16:37:37;;;;;;;6.70;1.63;;;;;;;2.67;76.87;98849.44;10491657;28;20269;-84
2021/12/08 16:48:05;;;;;;;5.03;1.50;;;;;;;2.65;76.07;98849.75;10496929;28;20304;-83
2021/12/08 16:53:10;;;;;;;7.07;1.87;;;;;;;2.65;75.23;98862.78;10483942;28;20607;-82
2021/12/08 16:58:14;;;;;;;5.17;1.97;;;;;;;2.35;76.88;98866.91;10487304;28;20493;-82
2021/12/08 17:03:18;;;;;;;3.77;1.63;;;;;;;2.54;76.03;98862.97;10483652;28;20223;-82
2021/12/08 17:08:21;;;;;;;7.63;2.03;;;;;;;2.73;74.81;98875.94;10463873;28;20577;-81
2021/12/08 17:13:24;;;;;;;5.90;2.07;;;;;;;2.72;74.99;98879.84;10484599;28;20230;-83
2021/12/08 17:18:28;;;;;;;5.70;1.97;;;;;;;2.72;74.58;98879.84;10515521;28;20194;-84
2021/12/08 17:23:32;;;;;;;5.07;1.17;;;;;;;2.40;76.11;98887.06;10531079;28;20203;-81
2021/12/08 17:28:36;;;;;;;4.83;1.30;;;;;;;2.26;76.40;98888.94;10522885;28;20249;-81
2021/12/08 17:33:40;;;;;;;2.60;1.33;;;;;;;2.77;74.83;98893.63;10511720;28;20230;-83
2021/12/08 17:38:42;;;;;;;4.33;1.60;;;;;;;2.65;74.86;98898.84;10484934;28;20241;-85
2021/12/08 17:43:45;;;;;;;9.80;1.73;;;;;;;2.72;74.69;98905.63;10499624;28;20222;-85
2021/12/08 17:49:03;;;;;;;7.10;1.93;;;;;;;2.85;74.38;98895.66;10500055;28;20275;-84
2021/12/08 17:54:06;;;;;;;6.67;2.07;;;;;;;2.87;73.66;98897.03;10493495;28;20234;-82
2021/12/08 17:59:09;;;;;;;6.83;2.10;;;;;;;2.90;73.92;98887.25;10505273;28;20256;-82
2021/12/08 18:04:12;;;;;;;5.77;1.23;;;;;;;2.75;73.87;98891.16;10512113;28;20389;-82
2021/12/08 18:09:17;;;;;;;7.83;1.60;;;;;;;3.21;73.01;98899.41;10514709;28;20246;-82
2021/12/08 18:14:19;;;;;;;7.23;1.73;;;;;;;2.76;73.27;98900.28;10515109;28;20307;-82
2021/12/08 18:19:21;;;;;;;5.13;1.47;;;;;;;2.76;73.26;98891.97;10512136;28;20226;-80
2021/12/08 18:24:23;;;;;;;4.67;1.73;;;;;;;2.76;72.41;98905.84;10523561;28;20238;-83
2021/12/08 18:29:26;;;;;;;6.20;1.63;;;;;;;2.82;72.57;98901.84;10486596;28;20311;-83
2021/12/08 18:34:56;;;;;;;4.47;1.53;;;;;;;2.58;73.31;98911.13;10500120;28;20244;-83
2021/12/08 18:39:58;;;;;;;4.00;1.20;;;;;;;2.84;72.46;98921.75;10533914;28;20226;-83
2021/12/08 18:45:01;;;;;;;7.43;2.20;;;;;;;3.05;71.23;98923.03;10482941;28;20258;-83
2021/12/08 18:50:04;;;;;;;3.80;1.37;;;;;;;3.07;70.70;98936.63;10496066;28;20226;-83
2021/12/08 18:55:11;;;;;;;5.77;1.53;;;;;;;2.90;71.21;98937.19;10502490;28;20234;-83
2021/12/08 19:00:17;;;;;;;4.03;1.63;;;;;;;2.92;71.25;98951.59;10515394;28;20223;-84
2021/12/08 19:05:20;;;;;;;5.83;1.87;;;;;;;2.75;71.21;98945.78;10487232;28;20262;-82
2021/12/08 19:10:26;;;;;;;5.57;1.70;;;;;;;2.72;71.45;98954.72;10513890;28;20561;-82
2021/12/08 19:15:30;;;;;;;7.27;1.67;;;;;;;2.91;70.41;98972.13;10505722;28;20250;-82
2021/12/08 19:20:33;;;;;;;6.17;1.10;;;;;;;3.67;69.11;98967.88;10486508;28;20230;-82
2021/12/08 19:25:37;;;;;;;7.40;1.90;;;;;;;3.00;70.03;98981.38;10472483;28;20274;-84
2021/12/08 19:30:40;;;;;;;2.93;1.57;;;;;;;2.98;71.14;98980.88;10483896;28;20265;-83
2021/12/08 19:35:44;;;;;;;4.53;1.80;;;;;;;3.07;71.33;98975.47;10471116;28;20566;-79
2021/12/08 19:40:48;;;;;;;4.67;1.73;;;;;;;2.91;71.27;98986.00;10471365;28;20233;-80
2021/12/08 19:45:54;;;;;;;5.73;2.57;;;;;;;2.96;70.53;98985.88;10487934;28;20308;-81
2021/12/08 19:50:57;;;;;;;5.87;2.50;;;;;;;2.87;70.62;98993.28;10485577;28;20672;-83
2021/12/08 19:55:59;;;;;;;8.77;2.27;;;;;;;2.67;72.14;98999.19;10502673;28;20272;-81
2021/12/08 20:01:03;;;;;;;8.27;2.40;;;;;;;2.91;71.65;99002.63;10493531;28;20226;-82
2021/12/08 20:06:06;;;;;;;6.50;2.20;;;;;;;2.83;71.01;99006.09;10507990;28;20265;-82
2021/12/08 20:11:09;;;;;;;7.73;2.23;;;;;;;2.81;70.91;99011.16;10484684;28;20271;-80
2021/12/08 20:16:11;;;;;;;5.60;1.83;;;;;;;2.90;69.85;99015.69;10480718;28;20261;-83
2021/12/08 20:21:15;;;;;;;11.73;4.93;;;;;;;2.77;71.08;99018.41;10495806;28;20230;-80
2021/12/08 20:26:21;;;;;;;4.00;2.10;;;;;;;2.82;70.04;99034.97;10478949;28;20658;-80
2021/12/08 20:31:26;;;;;;;25.03;12.47;;;;;;;2.73;70.06;99042.31;10501751;28;20311;-81
2021/12/08 20:36:29;;;;;;;5.90;2.73;;;;;;;2.69;71.72;99027.44;10496573;28;20280;-80
2021/12/08 20:41:32;;;;;;;7.87;2.30;;;;;;;2.69;71.73;99039.34;10507872;28;20234;-80
2021/12/08 20:46:35;;;;;;;6.43;2.43;;;;;;;2.59;72.09;99045.84;10525027;28;20645;-80
2021/12/08 20:51:38;;;;;;;10.47;2.43;;;;;;;2.55;72.11;99050.38;10497279;28;20230;-81
2021/12/08 20:56:40;;;;;;;5.57;2.27;;;;;;;2.54;72.07;99053.44;10464436;28;20235;-80
2021/12/08 21:01:57;;;;;;;7.43;2.67;;;;;;;2.41;72.51;99051.41;10472243;28;20246;-80
2021/12/08 21:07:00;;;;;;;6.80;3.03;;;;;;;2.62;71.75;99057.47;10467736;28;20246;-83
2021/12/08 21:12:03;;;;;;;10.10;3.50;;;;;;;2.93;70.38;99059.47;10480763;28;20284;-81
2021/12/08 21:17:05;;;;;;;8.37;3.00;;;;;;;2.92;69.85;99062.53;10500632;28;20253;-80
2021/12/08 21:22:08;;;;;;;7.20;2.30;;;;;;;2.90;70.36;99060.06;10516092;28;20223;-82
2021/12/08 21:27:10;;;;;;;5.00;1.80;;;;;;;2.66;70.51;99067.66;10495990;28;20331;-82
2021/12/08 21:32:12;;;;;;;4.20;1.87;;;;;;;3.01;69.60;99068.22;10487226;28;20753;-80
2021/12/08 21:37:16;;;;;;;2.93;1.40;;;;;;;2.89;69.39;99074.25;10483694;28;20235;-80
2021/12/08 21:42:19;;;;;;;5.43;1.37;;;;;;;2.89;70.27;99074.25;10498024;28;20232;-81
2021/12/08 21:47:21;;;;;;;4.93;1.17;;;;;;;2.91;69.70;99077.53;10502522;28;20258;-79
2021/12/08 21:52:23;;;;;;;3.70;1.37;;;;;;;2.79;70.50;99077.19;10496277;28;20287;-80
2021/12/08 21:57:25;;;;;;;4.23;1.30;;;;;;;2.77;70.48;99090.53;10498297;28;20256;-80
2021/12/08 22:02:28;;;;;;;5.20;1.53;;;;;;;2.59;71.24;99087.44;10511647;28;20254;-80
2021/12/08 22:07:31;;;;;;;5.00;1.43;;;;;;;2.51;72.22;99090.06;10485854;28;20730;-79
2021/12/08 22:12:33;;;;;;;5.13;1.20;;;;;;;2.20;73.11;99095.16;10470826;28;20292;-80
2021/12/08 22:17:35;;;;;;;7.00;1.63;;;;;;;2.11;73.48;99096.97;10474263;28;20238;-80
2021/12/08 22:22:38;;;;;;;4.17;1.67;;;;;;;2.07;73.45;99098.66;10488211;28;20317;-80
2021/12/08 22:27:43;;;;;;;5.07;1.93;;;;;;;2.07;73.29;99109.75;10486704;28;20311;-80
2021/12/08 22:32:47;;;;;;;3.87;2.03;;;;;;;1.88;74.89;99121.59;10487933;28;20302;-80
2021/12/08 22:37:51;;;;;;;5.13;2.03;;;;;;;1.99;74.71;99122.31;10495454;28;20683;-80
2021/12/08 22:42:54;;;;;;;5.93;2.40;;;;;;;2.28;73.71;99125.00;10500138;28;20254;-80
2021/12/08 22:47:57;;;;;;;4.47;2.47;;;;;;;2.30;73.21;99136.63;10504923;28;20246;-80
2021/12/08 22:52:59;;;;;;;5.87;2.43;;;;;;;2.31;72.66;99138.25;10485271;28;20234;-79
2021/12/08 22:58:02;;;;;;;6.13;2.00;;;;;;;2.31;73.59;99137.44;10483116;28;20226;-80
2021/12/08 23:03:07;;;;;;;6.10;2.70;;;;;;;2.40;73.36;99144.84;10469207;28;20289;-80
2021/12/08 23:08:09;;;;;;;4.47;2.27;;;;;;;2.52;73.56;99152.72;10466976;28;20311;-80
2021/12/08 23:13:17;;;;;;;6.07;2.57;;;;;;;2.64;72.88;99155.03;10471947;28;20218;-79
2021/12/08 23:18:20;;;;;;;3.80;2.30;;;;;;;2.38;73.24;99155.38;10485804;28;20303;-80
2021/12/08 23:23:22;;;;;;;4.20;2.03;;;;;;;2.41;72.95;99160.34;10522571;28;20502;-79
2021/12/08 23:28:25;;;;;;;7.63;2.63;;;;;;;2.45;72.44;99158.59;10511211;28;20226;-79
2021/12/08 23:33:31;;;;;;;7.87;2.53;;;;;;;2.41;72.72;99145.66;10511569;28;20198;-80
2021/12/08 23:43:42;;;;;;;3.57;2.07;;;;;;;2.35;73.11;99142.13;10511392;28;20260;-80
2021/12/08 23:48:45;;;;;;;6.17;2.70;;;;;;;2.17;73.97;99138.16;10527039;28;20276;-80
2021/12/08 23:53:50;;;;;;;6.70;2.57;;;;;;;2.14;74.21;99135.97;10527572;28;20465;-79
2021/12/08 23:58:54;;;;;;;4.87;2.63;;;;;;;1.92;74.38;99135.66;10506381;28;20194;-80
